sensor_id;sensor_type;location;lat;lon;timestamp;P1;durP1;ratioP1;P2;durP2;ratioP2
5452;SDS011;2749;53.576;9.822;2023-08-24T00:00:10;5.00;;;4.60;;
5452;SDS011;2749;53.576;9.822;2023-08-24T00:02:36;6.40;;;5.00;;
5452;SDS011;2749;53.576;9.822;2023-08-24T00:05:02;9.87;;;5.23;;
5452;SDS011;2749;53.576;9.822;2023-08-24T00:07:29;6.27;;;5.10;;
5452;SDS011;2749;53.576;9.822;2023-08-24T00:09:55;5.53;;;5.07;;
5452;SDS011;2749;53.576;9.822;2023-08-24T00:12:21;8.03;;;4.53;;
5452;SDS011;2749;53.576;9.822;2023-08-24T00:14:47;8.53;;;5.03;;
5452;SDS011;2749;53.576;9.822;2023-08-24T00:17:12;5.63;;;5.13;;
5452;SDS011;2749;53.576;9.822;2023-08-24T00:19:39;4.97;;;3.70;;
5452;SDS011;2749;53.576;9.822;2023-08-24T00:22:05;6.63;;;4.53;;
5452;SDS011;2749;53.576;9.822;2023-08-24T00:24:31;7.43;;;5.20;;
5452;SDS011;2749;53.576;9.822;2023-08-24T00:26:57;5.17;;;4.30;;
5452;SDS011;2749;53.576;9.822;2023-08-24T00:29:23;6.97;;;5.20;;
5452;SDS011;2749;53.576;9.822;2023-08-24T00:31:49;5.83;;;4.57;;
5452;SDS011;2749;53.576;9.822;2023-08-24T00:34:15;5.20;;;4.10;;
5452;SDS011;2749;53.576;9.822;2023-08-24T00:36:41;8.00;;;4.47;;
5452;SDS011;2749;53.576;9.822;2023-08-24T00:39:07;6.30;;;4.40;;
5452;SDS011;2749;53.576;9.822;2023-08-24T00:41:33;4.93;;;4.53;;
5452;SDS011;2749;53.576;9.822;2023-08-24T00:43:59;5.60;;;5.00;;
5452;SDS011;2749;53.576;9.822;2023-08-24T00:46:25;4.97;;;4.30;;
5452;SDS011;2749;53.576;9.822;2023-08-24T00:48:52;6.83;;;5.07;;
5452;SDS011;2749;53.576;9.822;2023-08-24T00:51:21;6.90;;;5.30;;
5452;SDS011;2749;53.576;9.822;2023-08-24T00:53:47;4.90;;;3.90;;
5452;SDS011;2749;53.576;9.822;2023-08-24T00:56:13;4.57;;;4.13;;
5452;SDS011;2749;53.576;9.822;2023-08-24T00:58:39;5.60;;;4.37;;
5452;SDS011;2749;53.576;9.822;2023-08-24T01:01:05;4.60;;;4.20;;
5452;SDS011;2749;53.576;9.822;2023-08-24T01:03:31;4.90;;;4.50;;
5452;SDS011;2749;53.576;9.822;2023-08-24T01:05:57;6.33;;;4.40;;
5452;SDS011;2749;53.576;9.822;2023-08-24T01:08:23;5.60;;;5.10;;
5452;SDS011;2749;53.576;9.822;2023-08-24T01:10:58;6.00;;;5.37;;
5452;SDS011;2749;53.576;9.822;2023-08-24T01:13:39;5.50;;;4.47;;
5452;SDS011;2749;53.576;9.822;2023-08-24T01:16:08;4.87;;;4.23;;
5452;SDS011;2749;53.576;9.822;2023-08-24T01:18:38;7.30;;;4.13;;
5452;SDS011;2749;53.576;9.822;2023-08-24T01:21:04;4.93;;;4.43;;
5452;SDS011;2749;53.576;9.822;2023-08-24T01:23:44;4.67;;;4.23;;
5452;SDS011;2749;53.576;9.822;2023-08-24T01:26:16;5.77;;;4.43;;
5452;SDS011;2749;53.576;9.822;2023-08-24T01:28:43;6.60;;;4.33;;
5452;SDS011;2749;53.576;9.822;2023-08-24T01:31:09;5.87;;;4.47;;
5452;SDS011;2749;53.576;9.822;2023-08-24T01:33:35;7.10;;;6.00;;
5452;SDS011;2749;53.576;9.822;2023-08-24T01:36:01;6.00;;;4.50;;
5452;SDS011;2749;53.576;9.822;2023-08-24T01:38:27;6.80;;;5.20;;
5452;SDS011;2749;53.576;9.822;2023-08-24T01:43:21;5.43;;;4.30;;
5452;SDS011;2749;53.576;9.822;2023-08-24T01:45:47;5.63;;;5.10;;
5452;SDS011;2749;53.576;9.822;2023-08-24T01:48:14;8.67;;;5.33;;
5452;SDS011;2749;53.576;9.822;2023-08-24T01:50:41;5.57;;;5.03;;
5452;SDS011;2749;53.576;9.822;2023-08-24T01:53:07;5.43;;;4.93;;
5452;SDS011;2749;53.576;9.822;2023-08-24T01:55:33;6.30;;;5.47;;
5452;SDS011;2749;53.576;9.822;2023-08-24T01:57:59;5.10;;;4.50;;
5452;SDS011;2749;53.576;9.822;2023-08-24T02:00:25;6.57;;;5.50;;
5452;SDS011;2749;53.576;9.822;2023-08-24T02:02:51;5.80;;;4.90;;
5452;SDS011;2749;53.576;9.822;2023-08-24T02:05:17;10.40;;;7.00;;
5452;SDS011;2749;53.576;9.822;2023-08-24T02:07:43;9.33;;;5.43;;
5452;SDS011;2749;53.576;9.822;2023-08-24T02:10:09;14.73;;;6.00;;
5452;SDS011;2749;53.576;9.822;2023-08-24T02:12:35;7.57;;;6.07;;
5452;SDS011;2749;53.576;9.822;2023-08-24T02:15:01;12.00;;;8.53;;
5452;SDS011;2749;53.576;9.822;2023-08-24T02:17:27;6.47;;;5.70;;
5452;SDS011;2749;53.576;9.822;2023-08-24T02:19:53;11.63;;;7.00;;
5452;SDS011;2749;53.576;9.822;2023-08-24T02:22:19;8.67;;;5.77;;
5452;SDS011;2749;53.576;9.822;2023-08-24T02:24:45;6.60;;;5.80;;
5452;SDS011;2749;53.576;9.822;2023-08-24T02:27:11;5.93;;;5.27;;
5452;SDS011;2749;53.576;9.822;2023-08-24T02:29:37;8.93;;;5.47;;
5452;SDS011;2749;53.576;9.822;2023-08-24T02:32:04;11.47;;;6.23;;
5452;SDS011;2749;53.576;9.822;2023-08-24T02:34:30;6.90;;;5.83;;
5452;SDS011;2749;53.576;9.822;2023-08-24T02:36:56;6.80;;;5.90;;
5452;SDS011;2749;53.576;9.822;2023-08-24T02:39:22;12.07;;;6.63;;
5452;SDS011;2749;53.576;9.822;2023-08-24T02:41:48;9.40;;;6.07;;
5452;SDS011;2749;53.576;9.822;2023-08-24T02:44:14;6.10;;;5.43;;
5452;SDS011;2749;53.576;9.822;2023-08-24T02:46:43;6.60;;;5.90;;
5452;SDS011;2749;53.576;9.822;2023-08-24T02:49:09;8.63;;;6.40;;
5452;SDS011;2749;53.576;9.822;2023-08-24T02:51:35;7.70;;;6.10;;
5452;SDS011;2749;53.576;9.822;2023-08-24T02:54:01;6.03;;;5.53;;
5452;SDS011;2749;53.576;9.822;2023-08-24T02:56:27;5.93;;;5.40;;
5452;SDS011;2749;53.576;9.822;2023-08-24T02:58:53;9.57;;;6.63;;
5452;SDS011;2749;53.576;9.822;2023-08-24T03:01:19;6.80;;;6.20;;
5452;SDS011;2749;53.576;9.822;2023-08-24T03:03:45;8.47;;;6.37;;
5452;SDS011;2749;53.576;9.822;2023-08-24T03:06:11;9.17;;;6.00;;
5452;SDS011;2749;53.576;9.822;2023-08-24T03:08:37;8.73;;;6.40;;
5452;SDS011;2749;53.576;9.822;2023-08-24T03:11:03;5.97;;;5.30;;
5452;SDS011;2749;53.576;9.822;2023-08-24T03:13:29;6.63;;;6.00;;
5452;SDS011;2749;53.576;9.822;2023-08-24T03:15:56;6.90;;;6.30;;
5452;SDS011;2749;53.576;9.822;2023-08-24T03:18:22;7.63;;;6.50;;
5452;SDS011;2749;53.576;9.822;2023-08-24T03:20:48;7.47;;;6.70;;
5452;SDS011;2749;53.576;9.822;2023-08-24T03:23:15;8.17;;;7.30;;
5452;SDS011;2749;53.576;9.822;2023-08-24T03:25:41;8.47;;;7.20;;
5452;SDS011;2749;53.576;9.822;2023-08-24T03:28:07;7.50;;;6.90;;
5452;SDS011;2749;53.576;9.822;2023-08-24T03:30:34;8.37;;;7.50;;
5452;SDS011;2749;53.576;9.822;2023-08-24T03:33:01;9.87;;;6.73;;
5452;SDS011;2749;53.576;9.822;2023-08-24T03:35:28;10.50;;;8.47;;
5452;SDS011;2749;53.576;9.822;2023-08-24T03:37:55;10.17;;;7.47;;
5452;SDS011;2749;53.576;9.822;2023-08-24T03:40:20;8.87;;;7.97;;
5452;SDS011;2749;53.576;9.822;2023-08-24T03:42:46;6.97;;;6.27;;
5452;SDS011;2749;53.576;9.822;2023-08-24T03:45:12;8.40;;;7.50;;
5452;SDS011;2749;53.576;9.822;2023-08-24T03:47:38;12.20;;;7.53;;
5452;SDS011;2749;53.576;9.822;2023-08-24T03:50:04;7.70;;;6.90;;
5452;SDS011;2749;53.576;9.822;2023-08-24T03:52:30;8.80;;;7.50;;
5452;SDS011;2749;53.576;9.822;2023-08-24T03:54:56;10.40;;;7.50;;
5452;SDS011;2749;53.576;9.822;2023-08-24T03:57:22;8.07;;;6.87;;
5452;SDS011;2749;53.576;9.822;2023-08-24T03:59:48;10.20;;;7.13;;
5452;SDS011;2749;53.576;9.822;2023-08-24T04:02:14;10.17;;;8.20;;
5452;SDS011;2749;53.576;9.822;2023-08-24T04:04:40;7.73;;;6.93;;
5452;SDS011;2749;53.576;9.822;2023-08-24T04:07:06;8.30;;;7.13;;
5452;SDS011;2749;53.576;9.822;2023-08-24T04:09:32;10.37;;;8.93;;
5452;SDS011;2749;53.576;9.822;2023-08-24T04:11:58;11.53;;;10.13;;
5452;SDS011;2749;53.576;9.822;2023-08-24T04:14:24;11.00;;;9.30;;
5452;SDS011;2749;53.576;9.822;2023-08-24T04:16:50;11.87;;;9.27;;
5452;SDS011;2749;53.576;9.822;2023-08-24T04:19:17;8.13;;;7.30;;
5452;SDS011;2749;53.576;9.822;2023-08-24T04:21:43;13.07;;;8.80;;
5452;SDS011;2749;53.576;9.822;2023-08-24T04:24:09;12.77;;;10.73;;
5452;SDS011;2749;53.576;9.822;2023-08-24T04:26:34;11.03;;;8.23;;
5452;SDS011;2749;53.576;9.822;2023-08-24T04:29:01;9.90;;;8.23;;
5452;SDS011;2749;53.576;9.822;2023-08-24T04:31:27;10.27;;;9.37;;
5452;SDS011;2749;53.576;9.822;2023-08-24T04:33:53;10.10;;;9.20;;
5452;SDS011;2749;53.576;9.822;2023-08-24T04:36:19;12.03;;;7.80;;
5452;SDS011;2749;53.576;9.822;2023-08-24T04:38:45;10.90;;;9.00;;
5452;SDS011;2749;53.576;9.822;2023-08-24T04:41:11;11.00;;;8.97;;
5452;SDS011;2749;53.576;9.822;2023-08-24T04:43:37;10.10;;;7.83;;
5452;SDS011;2749;53.576;9.822;2023-08-24T04:46:03;9.20;;;8.17;;
5452;SDS011;2749;53.576;9.822;2023-08-24T04:48:29;9.97;;;8.10;;
5452;SDS011;2749;53.576;9.822;2023-08-24T04:50:59;11.80;;;7.90;;
5452;SDS011;2749;53.576;9.822;2023-08-24T04:53:26;9.70;;;7.67;;
5452;SDS011;2749;53.576;9.822;2023-08-24T04:55:52;8.50;;;7.70;;
5452;SDS011;2749;53.576;9.822;2023-08-24T04:58:18;9.13;;;7.00;;
5452;SDS011;2749;53.576;9.822;2023-08-24T05:00:44;10.93;;;9.10;;
5452;SDS011;2749;53.576;9.822;2023-08-24T05:03:10;11.33;;;8.47;;
5452;SDS011;2749;53.576;9.822;2023-08-24T05:05:36;8.40;;;7.40;;
5452;SDS011;2749;53.576;9.822;2023-08-24T05:08:03;13.40;;;7.80;;
5452;SDS011;2749;53.576;9.822;2023-08-24T05:10:35;7.40;;;6.70;;
5452;SDS011;2749;53.576;9.822;2023-08-24T05:13:01;10.93;;;7.30;;
5452;SDS011;2749;53.576;9.822;2023-08-24T05:15:27;8.20;;;6.43;;
5452;SDS011;2749;53.576;9.822;2023-08-24T05:17:53;9.27;;;7.20;;
5452;SDS011;2749;53.576;9.822;2023-08-24T05:20:21;8.33;;;7.43;;
5452;SDS011;2749;53.576;9.822;2023-08-24T05:22:47;8.77;;;7.87;;
5452;SDS011;2749;53.576;9.822;2023-08-24T05:25:13;10.13;;;9.23;;
5452;SDS011;2749;53.576;9.822;2023-08-24T05:27:41;8.90;;;7.40;;
5452;SDS011;2749;53.576;9.822;2023-08-24T05:30:07;10.37;;;7.93;;
5452;SDS011;2749;53.576;9.822;2023-08-24T05:32:34;9.80;;;7.47;;
5452;SDS011;2749;53.576;9.822;2023-08-24T05:35:03;10.40;;;7.50;;
5452;SDS011;2749;53.576;9.822;2023-08-24T05:37:29;8.60;;;7.50;;
5452;SDS011;2749;53.576;9.822;2023-08-24T05:39:55;8.77;;;7.43;;
5452;SDS011;2749;53.576;9.822;2023-08-24T05:42:21;8.53;;;7.70;;
5452;SDS011;2749;53.576;9.822;2023-08-24T05:44:47;12.20;;;8.53;;
5452;SDS011;2749;53.576;9.822;2023-08-24T05:47:13;10.53;;;7.23;;
5452;SDS011;2749;53.576;9.822;2023-08-24T05:49:39;9.97;;;7.37;;
5452;SDS011;2749;53.576;9.822;2023-08-24T05:52:05;8.80;;;6.80;;
5452;SDS011;2749;53.576;9.822;2023-08-24T05:54:31;9.73;;;6.60;;
5452;SDS011;2749;53.576;9.822;2023-08-24T05:56:57;7.10;;;6.40;;
5452;SDS011;2749;53.576;9.822;2023-08-24T05:59:26;11.10;;;6.57;;
5452;SDS011;2749;53.576;9.822;2023-08-24T06:01:52;6.90;;;5.10;;
5452;SDS011;2749;53.576;9.822;2023-08-24T06:04:18;5.73;;;5.03;;
5452;SDS011;2749;53.576;9.822;2023-08-24T06:06:44;8.20;;;5.73;;
5452;SDS011;2749;53.576;9.822;2023-08-24T06:09:10;12.13;;;4.93;;
5452;SDS011;2749;53.576;9.822;2023-08-24T06:11:36;5.10;;;4.70;;
5452;SDS011;2749;53.576;9.822;2023-08-24T06:14:02;4.70;;;3.20;;
5452;SDS011;2749;53.576;9.822;2023-08-24T06:16:28;7.20;;;4.00;;
5452;SDS011;2749;53.576;9.822;2023-08-24T06:18:54;4.10;;;3.67;;
5452;SDS011;2749;53.576;9.822;2023-08-24T06:21:20;4.07;;;3.53;;
5452;SDS011;2749;53.576;9.822;2023-08-24T06:23:46;4.80;;;2.87;;
5452;SDS011;2749;53.576;9.822;2023-08-24T06:26:16;3.37;;;3.10;;
5452;SDS011;2749;53.576;9.822;2023-08-24T06:28:42;3.53;;;2.70;;
5452;SDS011;2749;53.576;9.822;2023-08-24T06:31:08;7.20;;;3.57;;
5452;SDS011;2749;53.576;9.822;2023-08-24T06:33:35;3.90;;;3.13;;
5452;SDS011;2749;53.576;9.822;2023-08-24T06:36:01;3.97;;;3.53;;
5452;SDS011;2749;53.576;9.822;2023-08-24T06:38:27;5.97;;;3.63;;
5452;SDS011;2749;53.576;9.822;2023-08-24T06:40:54;11.63;;;4.23;;
5452;SDS011;2749;53.576;9.822;2023-08-24T06:43:20;7.00;;;5.30;;
5452;SDS011;2749;53.576;9.822;2023-08-24T06:45:45;8.33;;;4.63;;
5452;SDS011;2749;53.576;9.822;2023-08-24T06:48:11;5.07;;;4.57;;
5452;SDS011;2749;53.576;9.822;2023-08-24T06:50:37;5.50;;;3.83;;
5452;SDS011;2749;53.576;9.822;2023-08-24T06:53:04;4.10;;;3.47;;
5452;SDS011;2749;53.576;9.822;2023-08-24T06:55:30;3.80;;;3.37;;
5452;SDS011;2749;53.576;9.822;2023-08-24T06:57:56;4.00;;;2.97;;
5452;SDS011;2749;53.576;9.822;2023-08-24T07:00:22;5.30;;;2.90;;
5452;SDS011;2749;53.576;9.822;2023-08-24T07:02:50;6.03;;;2.33;;
5452;SDS011;2749;53.576;9.822;2023-08-24T07:05:16;3.97;;;2.40;;
5452;SDS011;2749;53.576;9.822;2023-08-24T07:07:45;3.83;;;2.53;;
5452;SDS011;2749;53.576;9.822;2023-08-24T07:10:12;4.30;;;2.00;;
5452;SDS011;2749;53.576;9.822;2023-08-24T07:12:38;4.50;;;2.03;;
5452;SDS011;2749;53.576;9.822;2023-08-24T07:15:07;2.80;;;2.03;;
5452;SDS011;2749;53.576;9.822;2023-08-24T07:17:33;3.90;;;3.10;;
5452;SDS011;2749;53.576;9.822;2023-08-24T07:19:59;2.23;;;2.03;;
5452;SDS011;2749;53.576;9.822;2023-08-24T07:22:25;4.17;;;1.80;;
5452;SDS011;2749;53.576;9.822;2023-08-24T07:24:54;9.70;;;2.90;;
5452;SDS011;2749;53.576;9.822;2023-08-24T07:27:20;2.40;;;2.20;;
5452;SDS011;2749;53.576;9.822;2023-08-24T07:29:46;4.90;;;2.90;;
5452;SDS011;2749;53.576;9.822;2023-08-24T07:32:12;2.73;;;1.90;;
5452;SDS011;2749;53.576;9.822;2023-08-24T07:34:38;4.20;;;2.50;;
5452;SDS011;2749;53.576;9.822;2023-08-24T07:37:04;5.67;;;2.00;;
5452;SDS011;2749;53.576;9.822;2023-08-24T07:39:30;6.23;;;2.27;;
5452;SDS011;2749;53.576;9.822;2023-08-24T07:41:56;4.63;;;3.03;;
5452;SDS011;2749;53.576;9.822;2023-08-24T07:44:22;6.37;;;2.20;;
5452;SDS011;2749;53.576;9.822;2023-08-24T07:46:47;3.87;;;2.00;;
5452;SDS011;2749;53.576;9.822;2023-08-24T07:49:14;3.93;;;2.53;;
5452;SDS011;2749;53.576;9.822;2023-08-24T07:51:40;3.70;;;2.20;;
5452;SDS011;2749;53.576;9.822;2023-08-24T07:54:07;4.70;;;1.83;;
5452;SDS011;2749;53.576;9.822;2023-08-24T07:56:35;3.23;;;1.57;;
5452;SDS011;2749;53.576;9.822;2023-08-24T07:59:01;3.40;;;2.30;;
5452;SDS011;2749;53.576;9.822;2023-08-24T08:01:28;2.47;;;2.10;;
5452;SDS011;2749;53.576;9.822;2023-08-24T08:03:54;3.83;;;1.97;;
5452;SDS011;2749;53.576;9.822;2023-08-24T08:06:20;4.13;;;2.27;;
5452;SDS011;2749;53.576;9.822;2023-08-24T08:08:47;2.30;;;2.10;;
5452;SDS011;2749;53.576;9.822;2023-08-24T08:11:15;2.73;;;2.07;;
5452;SDS011;2749;53.576;9.822;2023-08-24T08:13:41;5.90;;;2.30;;
5452;SDS011;2749;53.576;9.822;2023-08-24T08:16:07;3.90;;;2.33;;
5452;SDS011;2749;53.576;9.822;2023-08-24T08:18:33;8.30;;;2.67;;
5452;SDS011;2749;53.576;9.822;2023-08-24T08:20:59;4.30;;;2.43;;
5452;SDS011;2749;53.576;9.822;2023-08-24T08:23:25;4.70;;;2.70;;
5452;SDS011;2749;53.576;9.822;2023-08-24T08:25:51;2.70;;;2.50;;
5452;SDS011;2749;53.576;9.822;2023-08-24T08:28:18;3.63;;;1.70;;
5452;SDS011;2749;53.576;9.822;2023-08-24T08:30:44;4.23;;;2.23;;
5452;SDS011;2749;53.576;9.822;2023-08-24T08:33:10;3.80;;;2.70;;
5452;SDS011;2749;53.576;9.822;2023-08-24T08:35:37;7.13;;;3.03;;
5452;SDS011;2749;53.576;9.822;2023-08-24T08:38:05;4.93;;;2.80;;
5452;SDS011;2749;53.576;9.822;2023-08-24T08:40:31;8.60;;;3.50;;
5452;SDS011;2749;53.576;9.822;2023-08-24T08:42:57;3.73;;;2.93;;
5452;SDS011;2749;53.576;9.822;2023-08-24T08:45:26;5.60;;;3.47;;
5452;SDS011;2749;53.576;9.822;2023-08-24T08:47:59;3.83;;;2.50;;
5452;SDS011;2749;53.576;9.822;2023-08-24T08:50:26;3.10;;;2.30;;
5452;SDS011;2749;53.576;9.822;2023-08-24T08:52:52;3.50;;;3.20;;
5452;SDS011;2749;53.576;9.822;2023-08-24T08:55:18;4.93;;;2.90;;
5452;SDS011;2749;53.576;9.822;2023-08-24T08:57:48;9.33;;;4.17;;
5452;SDS011;2749;53.576;9.822;2023-08-24T09:00:17;7.10;;;3.40;;
5452;SDS011;2749;53.576;9.822;2023-08-24T09:02:44;4.93;;;2.80;;
5452;SDS011;2749;53.576;9.822;2023-08-24T09:05:11;7.70;;;3.60;;
5452;SDS011;2749;53.576;9.822;2023-08-24T09:07:39;2.97;;;2.67;;
5452;SDS011;2749;53.576;9.822;2023-08-24T09:10:05;3.20;;;2.90;;
5452;SDS011;2749;53.576;9.822;2023-08-24T09:12:32;5.60;;;2.60;;
5452;SDS011;2749;53.576;9.822;2023-08-24T09:14:58;3.43;;;2.40;;
5452;SDS011;2749;53.576;9.822;2023-08-24T09:17:24;3.10;;;2.17;;
5452;SDS011;2749;53.576;9.822;2023-08-24T09:19:50;4.93;;;3.40;;
5452;SDS011;2749;53.576;9.822;2023-08-24T09:22:16;3.53;;;2.60;;
5452;SDS011;2749;53.576;9.822;2023-08-24T09:24:42;8.23;;;2.93;;
5452;SDS011;2749;53.576;9.822;2023-08-24T09:27:16;3.37;;;2.33;;
5452;SDS011;2749;53.576;9.822;2023-08-24T09:29:43;7.80;;;3.10;;
5452;SDS011;2749;53.576;9.822;2023-08-24T09:32:08;5.43;;;2.70;;
5452;SDS011;2749;53.576;9.822;2023-08-24T09:34:36;4.27;;;2.80;;
5452;SDS011;2749;53.576;9.822;2023-08-24T09:37:02;4.93;;;3.17;;
5452;SDS011;2749;53.576;9.822;2023-08-24T09:39:31;6.03;;;3.53;;
5452;SDS011;2749;53.576;9.822;2023-08-24T09:41:59;4.30;;;3.90;;
5452;SDS011;2749;53.576;9.822;2023-08-24T09:44:29;4.67;;;4.03;;
5452;SDS011;2749;53.576;9.822;2023-08-24T09:46:55;4.60;;;3.37;;
5452;SDS011;2749;53.576;9.822;2023-08-24T09:49:21;6.30;;;3.57;;
5452;SDS011;2749;53.576;9.822;2023-08-24T09:51:47;2.77;;;2.57;;
5452;SDS011;2749;53.576;9.822;2023-08-24T09:54:14;8.47;;;3.70;;
5452;SDS011;2749;53.576;9.822;2023-08-24T09:56:41;7.20;;;3.80;;
5452;SDS011;2749;53.576;9.822;2023-08-24T09:59:11;5.23;;;2.80;;
5452;SDS011;2749;53.576;9.822;2023-08-24T10:01:40;8.00;;;3.77;;
5452;SDS011;2749;53.576;9.822;2023-08-24T10:04:06;4.03;;;3.50;;
5452;SDS011;2749;53.576;9.822;2023-08-24T10:06:33;4.07;;;3.67;;
5452;SDS011;2749;53.576;9.822;2023-08-24T10:09:02;3.80;;;2.20;;
5452;SDS011;2749;53.576;9.822;2023-08-24T10:11:33;7.93;;;3.10;;
5452;SDS011;2749;53.576;9.822;2023-08-24T10:14:19;7.13;;;3.57;;
5452;SDS011;2749;53.576;9.822;2023-08-24T10:16:46;6.43;;;3.10;;
5452;SDS011;2749;53.576;9.822;2023-08-24T10:19:12;5.80;;;3.50;;
5452;SDS011;2749;53.576;9.822;2023-08-24T10:21:39;8.37;;;3.67;;
5452;SDS011;2749;53.576;9.822;2023-08-24T10:24:05;5.07;;;3.30;;
5452;SDS011;2749;53.576;9.822;2023-08-24T10:26:32;3.33;;;3.03;;
5452;SDS011;2749;53.576;9.822;2023-08-24T10:28:59;9.27;;;3.50;;
5452;SDS011;2749;53.576;9.822;2023-08-24T10:31:25;9.53;;;3.00;;
5452;SDS011;2749;53.576;9.822;2023-08-24T10:33:52;4.90;;;2.90;;
5452;SDS011;2749;53.576;9.822;2023-08-24T10:36:18;5.07;;;2.60;;
5452;SDS011;2749;53.576;9.822;2023-08-24T10:38:44;4.37;;;2.70;;
5452;SDS011;2749;53.576;9.822;2023-08-24T10:41:10;6.00;;;3.43;;
5452;SDS011;2749;53.576;9.822;2023-08-24T10:43:40;5.23;;;2.70;;
5452;SDS011;2749;53.576;9.822;2023-08-24T10:46:13;7.17;;;3.23;;
5452;SDS011;2749;53.576;9.822;2023-08-24T10:53:45;5.73;;;3.30;;
5452;SDS011;2749;53.576;9.822;2023-08-24T10:56:15;3.00;;;2.60;;
5452;SDS011;2749;53.576;9.822;2023-08-24T10:58:42;3.73;;;3.43;;
5452;SDS011;2749;53.576;9.822;2023-08-24T11:01:13;7.00;;;2.70;;
5452;SDS011;2749;53.576;9.822;2023-08-24T11:03:40;3.47;;;2.90;;
5452;SDS011;2749;53.576;9.822;2023-08-24T11:06:20;3.33;;;2.80;;
5452;SDS011;2749;53.576;9.822;2023-08-24T11:08:47;3.27;;;2.90;;
5452;SDS011;2749;53.576;9.822;2023-08-24T11:11:22;5.83;;;3.57;;
5452;SDS011;2749;53.576;9.822;2023-08-24T11:16:43;4.53;;;3.13;;
5452;SDS011;2749;53.576;9.822;2023-08-24T11:19:10;3.17;;;2.90;;
5452;SDS011;2749;53.576;9.822;2023-08-24T11:21:37;3.13;;;2.07;;
5452;SDS011;2749;53.576;9.822;2023-08-24T11:24:04;5.13;;;3.67;;
5452;SDS011;2749;53.576;9.822;2023-08-24T11:26:30;4.43;;;4.00;;
5452;SDS011;2749;53.576;9.822;2023-08-24T11:28:56;3.77;;;2.90;;
5452;SDS011;2749;53.576;9.822;2023-08-24T11:31:23;2.30;;;2.10;;
5452;SDS011;2749;53.576;9.822;2023-08-24T11:33:53;6.03;;;3.87;;
5452;SDS011;2749;53.576;9.822;2023-08-24T11:36:20;4.00;;;2.80;;
5452;SDS011;2749;53.576;9.822;2023-08-24T11:38:46;3.20;;;2.90;;
5452;SDS011;2749;53.576;9.822;2023-08-24T11:41:16;5.67;;;2.97;;
5452;SDS011;2749;53.576;9.822;2023-08-24T11:43:42;4.00;;;3.33;;
5452;SDS011;2749;53.576;9.822;2023-08-24T11:46:08;6.03;;;2.80;;
5452;SDS011;2749;53.576;9.822;2023-08-24T11:48:34;5.20;;;3.97;;
5452;SDS011;2749;53.576;9.822;2023-08-24T11:51:02;3.60;;;3.30;;
5452;SDS011;2749;53.576;9.822;2023-08-24T11:53:28;3.23;;;2.50;;
5452;SDS011;2749;53.576;9.822;2023-08-24T11:55:56;3.97;;;2.60;;
5452;SDS011;2749;53.576;9.822;2023-08-24T11:58:23;4.03;;;3.50;;
5452;SDS011;2749;53.576;9.822;2023-08-24T12:00:49;7.87;;;3.50;;
5452;SDS011;2749;53.576;9.822;2023-08-24T12:03:15;5.33;;;3.30;;
5452;SDS011;2749;53.576;9.822;2023-08-24T12:05:41;3.90;;;2.93;;
5452;SDS011;2749;53.576;9.822;2023-08-24T12:08:07;4.30;;;3.40;;
5452;SDS011;2749;53.576;9.822;2023-08-24T12:10:41;2.80;;;2.53;;
5452;SDS011;2749;53.576;9.822;2023-08-24T12:13:07;3.40;;;2.30;;
5452;SDS011;2749;53.576;9.822;2023-08-24T12:15:34;3.83;;;2.60;;
5452;SDS011;2749;53.576;9.822;2023-08-24T12:18:08;3.43;;;2.93;;
5452;SDS011;2749;53.576;9.822;2023-08-24T12:20:34;4.40;;;3.43;;
5452;SDS011;2749;53.576;9.822;2023-08-24T12:23:00;3.57;;;2.83;;
5452;SDS011;2749;53.576;9.822;2023-08-24T12:25:26;4.57;;;3.10;;
5452;SDS011;2749;53.576;9.822;2023-08-24T12:27:52;5.90;;;3.43;;
5452;SDS011;2749;53.576;9.822;2023-08-24T12:30:19;3.30;;;3.00;;
5452;SDS011;2749;53.576;9.822;2023-08-24T12:32:46;5.13;;;3.40;;
5452;SDS011;2749;53.576;9.822;2023-08-24T12:35:13;5.50;;;3.23;;
5452;SDS011;2749;53.576;9.822;2023-08-24T12:37:39;5.13;;;3.90;;
5452;SDS011;2749;53.576;9.822;2023-08-24T12:40:06;6.53;;;3.17;;
5452;SDS011;2749;53.576;9.822;2023-08-24T12:42:32;3.83;;;3.37;;
5452;SDS011;2749;53.576;9.822;2023-08-24T12:44:58;8.10;;;4.80;;
5452;SDS011;2749;53.576;9.822;2023-08-24T12:47:24;4.50;;;3.37;;
5452;SDS011;2749;53.576;9.822;2023-08-24T12:49:51;6.53;;;3.17;;
5452;SDS011;2749;53.576;9.822;2023-08-24T12:52:17;4.57;;;3.40;;
5452;SDS011;2749;53.576;9.822;2023-08-24T12:54:43;4.43;;;3.70;;
5452;SDS011;2749;53.576;9.822;2023-08-24T12:57:09;4.40;;;4.00;;
5452;SDS011;2749;53.576;9.822;2023-08-24T12:59:35;3.43;;;3.13;;
5452;SDS011;2749;53.576;9.822;2023-08-24T13:02:01;8.27;;;3.60;;
5452;SDS011;2749;53.576;9.822;2023-08-24T13:04:27;4.03;;;3.53;;
5452;SDS011;2749;53.576;9.822;2023-08-24T13:06:54;4.60;;;3.80;;
5452;SDS011;2749;53.576;9.822;2023-08-24T13:09:20;5.63;;;4.10;;
5452;SDS011;2749;53.576;9.822;2023-08-24T13:11:48;7.33;;;3.80;;
5452;SDS011;2749;53.576;9.822;2023-08-24T13:14:14;5.07;;;3.30;;
5452;SDS011;2749;53.576;9.822;2023-08-24T13:16:40;5.30;;;4.60;;
5452;SDS011;2749;53.576;9.822;2023-08-24T13:19:06;5.73;;;3.40;;
5452;SDS011;2749;53.576;9.822;2023-08-24T13:21:32;5.17;;;3.73;;
5452;SDS011;2749;53.576;9.822;2023-08-24T13:23:58;6.63;;;3.70;;
5452;SDS011;2749;53.576;9.822;2023-08-24T13:26:24;5.50;;;4.13;;
5452;SDS011;2749;53.576;9.822;2023-08-24T13:28:50;3.10;;;2.87;;
5452;SDS011;2749;53.576;9.822;2023-08-24T13:31:17;4.00;;;3.33;;
5452;SDS011;2749;53.576;9.822;2023-08-24T13:33:44;5.33;;;3.13;;
5452;SDS011;2749;53.576;9.822;2023-08-24T13:36:10;5.50;;;3.70;;
5452;SDS011;2749;53.576;9.822;2023-08-24T13:38:36;3.90;;;3.60;;
5452;SDS011;2749;53.576;9.822;2023-08-24T13:41:02;3.77;;;3.40;;
5452;SDS011;2749;53.576;9.822;2023-08-24T13:43:28;5.03;;;3.00;;
5452;SDS011;2749;53.576;9.822;2023-08-24T13:45:54;9.17;;;4.20;;
5452;SDS011;2749;53.576;9.822;2023-08-24T13:48:20;2.97;;;2.77;;
5452;SDS011;2749;53.576;9.822;2023-08-24T13:50:49;5.50;;;2.90;;
5452;SDS011;2749;53.576;9.822;2023-08-24T13:53:17;6.13;;;3.83;;
5452;SDS011;2749;53.576;9.822;2023-08-24T13:55:43;7.17;;;3.10;;
5452;SDS011;2749;53.576;9.822;2023-08-24T13:58:08;4.60;;;3.07;;
5452;SDS011;2749;53.576;9.822;2023-08-24T14:00:34;3.43;;;2.93;;
5452;SDS011;2749;53.576;9.822;2023-08-24T14:03:00;7.03;;;3.67;;
5452;SDS011;2749;53.576;9.822;2023-08-24T14:05:26;5.00;;;3.27;;
5452;SDS011;2749;53.576;9.822;2023-08-24T14:07:52;3.90;;;3.43;;
5452;SDS011;2749;53.576;9.822;2023-08-24T14:10:18;3.60;;;3.30;;
5452;SDS011;2749;53.576;9.822;2023-08-24T14:12:44;3.93;;;3.30;;
5452;SDS011;2749;53.576;9.822;2023-08-24T14:15:10;3.83;;;2.77;;
5452;SDS011;2749;53.576;9.822;2023-08-24T14:17:36;3.93;;;2.77;;
5452;SDS011;2749;53.576;9.822;2023-08-24T14:20:02;4.67;;;2.80;;
5452;SDS011;2749;53.576;9.822;2023-08-24T14:22:29;3.03;;;2.83;;
5452;SDS011;2749;53.576;9.822;2023-08-24T14:24:55;4.33;;;2.57;;
5452;SDS011;2749;53.576;9.822;2023-08-24T14:27:21;3.17;;;2.73;;
5452;SDS011;2749;53.576;9.822;2023-08-24T14:29:47;3.47;;;2.57;;
5452;SDS011;2749;53.576;9.822;2023-08-24T14:32:13;7.23;;;3.03;;
5452;SDS011;2749;53.576;9.822;2023-08-24T14:34:38;2.47;;;2.27;;
5452;SDS011;2749;53.576;9.822;2023-08-24T14:37:05;3.47;;;2.40;;
5452;SDS011;2749;53.576;9.822;2023-08-24T14:39:30;3.40;;;2.10;;
5452;SDS011;2749;53.576;9.822;2023-08-24T14:41:56;5.43;;;2.83;;
5452;SDS011;2749;53.576;9.822;2023-08-24T14:44:22;7.10;;;2.83;;
5452;SDS011;2749;53.576;9.822;2023-08-24T14:46:48;6.63;;;2.77;;
5452;SDS011;2749;53.576;9.822;2023-08-24T14:49:14;6.13;;;2.90;;
5452;SDS011;2749;53.576;9.822;2023-08-24T14:51:43;3.30;;;2.80;;
5452;SDS011;2749;53.576;9.822;2023-08-24T14:54:10;3.87;;;3.37;;
5452;SDS011;2749;53.576;9.822;2023-08-24T14:56:39;3.70;;;3.10;;
5452;SDS011;2749;53.576;9.822;2023-08-24T14:59:04;5.03;;;2.93;;
5452;SDS011;2749;53.576;9.822;2023-08-24T15:01:30;3.80;;;3.00;;
5452;SDS011;2749;53.576;9.822;2023-08-24T15:03:56;3.37;;;2.83;;
5452;SDS011;2749;53.576;9.822;2023-08-24T15:06:22;3.53;;;3.20;;
5452;SDS011;2749;53.576;9.822;2023-08-24T15:08:48;3.03;;;2.23;;
5452;SDS011;2749;53.576;9.822;2023-08-24T15:11:14;4.10;;;3.30;;
5452;SDS011;2749;53.576;9.822;2023-08-24T15:13:41;4.13;;;2.70;;
5452;SDS011;2749;53.576;9.822;2023-08-24T15:16:08;2.73;;;2.53;;
5452;SDS011;2749;53.576;9.822;2023-08-24T15:18:35;3.30;;;3.00;;
5452;SDS011;2749;53.576;9.822;2023-08-24T15:21:01;7.50;;;3.37;;